Time,TemperatureF,DewpointF,PressureIn,WindDirection,WindDirectionDegrees,WindSpeedMPH,WindSpeedGustMPH,Humidity,HourlyPrecipIn,Conditions,Clouds,dailyrainin,SoftwareType,DateUTC
2013-01-11 00:05:00,44.1,42.8,29.98,WSW,246,0.0,0.0,95,0.00,,,0.00,Wunderground v.1.15,2013-01-11 06:05:00,
2013-01-11 00:10:00,43.9,42.6,29.98,WSW,246,0.0,0.0,95,0.00,,,0.00,Wunderground v.1.15,2013-01-11 06:10:00,
2013-01-11 00:20:00,43.5,42.2,29.97,WSW,246,0.0,0.0,95,0.00,,,0.00,Wunderground v.1.15,2013-01-11 06:20:00,
2013-01-11 00:25:00,43.3,42.0,29.98,WSW,246,0.0,0.0,95,0.00,,,0.00,Wunderground v.1.15,2013-01-11 06:25:00,
2013-01-11 00:35:00,43.2,41.9,29.98,WSW,246,1.0,1.0,95,0.00,,,0.00,Wunderground v.1.15,2013-01-11 06:35:00,
2013-01-11 00:40:00,43.6,42.5,29.98,WSW,244,1.0,1.0,96,0.00,,,0.00,Wunderground v.1.15,2013-01-11 06:40:00,
2013-01-11 00:50:00,44.1,42.8,29.98,WSW,239,1.0,2.0,95,0.00,,,0.00,Wunderground v.1.15,2013-01-11 06:50:00,
2013-01-11 00:55:00,44.3,43.0,29.98,WSW,239,1.0,4.0,95,0.00,,,0.00,Wunderground v.1.15,2013-01-11 06:55:00,
2013-01-11 01:05:00,44.9,43.3,29.97,WSW,237,1.0,2.0,94,0.00,,,0.00,Wunderground v.1.15,2013-01-11 07:05:00,
2013-01-11 01:10:00,45.2,43.3,29.97,WSW,237,1.0,1.0,93,0.00,,,0.00,Wunderground v.1.15,2013-01-11 07:10:00,
2013-01-11 01:20:00,44.9,42.7,29.98,WSW,237,0.0,0.0,92,0.00,,,0.00,Wunderground v.1.15,2013-01-11 07:20:00,
2013-01-11 01:25:00,44.8,42.6,29.98,WSW,237,0.0,0.0,92,0.00,,,0.00,Wunderground v.1.15,2013-01-11 07:25:00,
2013-01-11 01:35:00,44.6,42.4,29.98,WSW,237,1.0,1.0,92,0.00,,,0.00,Wunderground v.1.15,2013-01-11 07:35:00,
2013-01-11 01:40:00,44.6,42.4,29.97,WSW,237,1.0,1.0,92,0.00,,,0.00,Wunderground v.1.15,2013-01-11 07:40:00,
2013-01-11 01:50:00,44.9,42.7,29.98,WSW,237,1.0,1.0,92,0.00,,,0.00,Wunderground v.1.15,2013-01-11 07:50:00,
2013-01-11 01:55:00,45.4,42.6,29.98,WSW,237,2.0,2.0,90,0.00,,,0.00,Wunderground v.1.15,2013-01-11 07:55:00,
2013-01-11 02:05:00,45.8,42.4,29.97,SW,236,1.0,2.0,88,0.00,,,0.00,Wunderground v.1.15,2013-01-11 08:05:00,
2013-01-11 02:10:00,46.1,42.4,29.98,SW,236,1.0,2.0,87,0.00,,,0.00,Wunderground v.1.15,2013-01-11 08:10:00,
2013-01-11 02:20:00,46.5,42.2,29.97,SW,234,1.0,1.0,85,0.00,,,0.00,Wunderground v.1.15,2013-01-11 08:20:00,
2013-01-11 02:25:00,46.8,42.2,29.98,SW,227,1.0,1.0,84,0.00,,,0.00,Wunderground v.1.15,2013-01-11 08:25:00,
2013-01-11 02:35:00,47.7,42.8,29.97,SSW,210,2.0,5.0,83,0.00,,,0.00,Wunderground v.1.15,2013-01-11 08:35:00,
2013-01-11 02:40:00,48.0,42.8,29.97,SSW,210,2.0,3.0,82,0.00,,,0.00,Wunderground v.1.15,2013-01-11 08:40:00,
2013-01-11 02:50:00,48.8,43.2,29.97,SSW,203,3.0,7.0,81,0.00,,,0.00,Wunderground v.1.15,2013-01-11 08:50:00,
2013-01-11 02:55:00,49.1,43.5,29.97,SSW,200,4.0,7.0,81,0.00,,,0.00,Wunderground v.1.15,2013-01-11 08:55:00,
2013-01-11 03:05:00,49.4,43.8,29.97,SSW,192,4.0,6.0,81,0.00,,,0.00,Wunderground v.1.15,2013-01-11 09:05:00,
2013-01-11 03:10:00,49.6,44.0,29.97,South,191,4.0,4.0,81,0.00,,,0.00,Wunderground v.1.15,2013-01-11 09:10:00,
2013-01-11 03:20:00,49.8,44.5,29.96,SSW,208,3.0,5.0,82,0.00,,,0.00,Wunderground v.1.15,2013-01-11 09:20:00,
2013-01-11 03:25:00,49.9,44.9,29.96,SW,217,4.0,6.0,83,0.00,,,0.00,Wunderground v.1.15,2013-01-11 09:25:00,
2013-01-11 03:35:00,50.4,45.4,29.95,SSW,196,5.0,7.0,83,0.00,,,0.00,Wunderground v.1.15,2013-01-11 09:35:00,
2013-01-11 03:40:00,50.5,45.8,29.95,SSW,206,5.0,5.0,84,0.00,,,0.00,Wunderground v.1.15,2013-01-11 09:40:00,
2013-01-11 03:50:00,51.0,46.3,29.95,SSW,196,6.0,6.0,84,0.00,,,0.00,Wunderground v.1.15,2013-01-11 09:50:00,
2013-01-11 03:55:00,51.0,46.3,29.95,SSW,198,5.0,8.0,84,0.00,,,0.00,Wunderground v.1.15,2013-01-11 09:55:00,
2013-01-11 04:05:00,50.8,46.1,29.95,SSW,200,4.0,4.0,84,0.00,,,0.00,Wunderground v.1.15,2013-01-11 10:05:00,
2013-01-11 04:10:00,50.7,46.0,29.95,SSW,205,5.0,7.0,84,0.00,,,0.00,Wunderground v.1.15,2013-01-11 10:10:00,
2013-01-11 04:20:00,50.5,46.2,29.94,SSW,212,4.0,14.0,85,0.00,,,0.00,Wunderground v.1.15,2013-01-11 10:20:00,
2013-01-11 04:25:00,50.4,46.4,29.94,SSW,199,4.0,14.0,86,0.00,,,0.00,Wunderground v.1.15,2013-01-11 10:25:00,
2013-01-11 04:35:00,50.2,46.2,29.94,SSW,206,4.0,4.0,86,0.00,,,0.00,Wunderground v.1.15,2013-01-11 10:35:00,
2013-01-11 04:40:00,50.1,46.4,29.94,SSW,208,4.0,4.0,87,0.00,,,0.00,Wunderground v.1.15,2013-01-11 10:40:00,
2013-01-11 04:50:00,49.9,46.2,29.94,SSW,200,3.0,3.0,87,0.00,,,0.00,Wunderground v.1.15,2013-01-11 10:50:00,
2013-01-11 04:55:00,49.8,46.4,29.93,SSW,205,3.0,5.0,88,0.00,,,0.00,Wunderground v.1.15,2013-01-11 10:55:00,
2013-01-11 05:05:00,49.4,46.0,29.94,SSW,195,3.0,5.0,88,0.00,,,0.00,Wunderground v.1.15,2013-01-11 11:05:00,
2013-01-11 05:10:00,49.2,45.8,29.94,SSW,195,3.0,4.0,88,0.00,,,0.00,Wunderground v.1.15,2013-01-11 11:10:00,
2013-01-11 05:20:00,48.9,45.8,29.94,SSW,195,3.0,6.0,89,0.00,,,0.00,Wunderground v.1.15,2013-01-11 11:20:00,
2013-01-11 05:25:00,48.9,46.1,29.93,SSW,202,4.0,6.0,90,0.00,,,0.00,Wunderground v.1.15,2013-01-11 11:25:00,
2013-01-11 05:35:00,48.8,46.3,29.94,SSW,212,5.0,5.0,91,0.00,,,0.00,Wunderground v.1.15,2013-01-11 11:35:00,
2013-01-11 05:40:00,48.8,46.3,29.94,SW,216,6.0,7.0,91,0.00,,,0.00,Wunderground v.1.15,2013-01-11 11:40:00,
2013-01-11 05:50:00,49.2,47.0,29.93,SW,215,6.0,6.0,92,0.00,,,0.00,Wunderground v.1.15,2013-01-11 11:50:00,
2013-01-11 05:55:00,49.4,46.9,29.93,South,185,6.0,6.0,91,0.00,,,0.00,Wunderground v.1.15,2013-01-11 11:55:00,
2013-01-11 06:05:00,49.6,46.8,29.93,SW,216,6.0,6.0,90,0.00,,,0.00,Wunderground v.1.15,2013-01-11 12:05:00,
2013-01-11 06:10:00,49.8,46.4,29.94,South,182,6.0,13.0,88,0.00,,,0.00,Wunderground v.1.15,2013-01-11 12:10:00,
2013-01-11 06:20:00,49.9,46.5,29.93,SW,215,7.0,8.0,88,0.00,,,0.00,Wunderground v.1.15,2013-01-11 12:20:00,
2013-01-11 06:25:00,50.1,46.7,29.93,SW,216,7.0,8.0,88,0.00,,,0.00,Wunderground v.1.15,2013-01-11 12:25:00,
2013-01-11 06:35:00,49.9,46.2,29.93,SSW,203,5.0,10.0,87,0.00,,,0.00,Wunderground v.1.15,2013-01-11 12:35:00,
2013-01-11 06:40:00,49.9,46.2,29.93,SSW,208,6.0,6.0,87,0.00,,,0.00,Wunderground v.1.15,2013-01-11 12:40:00,
2013-01-11 06:50:00,49.9,46.2,29.93,South,188,4.0,11.0,87,0.00,,,0.00,Wunderground v.1.15,2013-01-11 12:50:00,
2013-01-11 06:55:00,49.9,46.2,29.93,SW,226,5.0,11.0,87,0.00,,,0.00,Wunderground v.1.15,2013-01-11 12:55:00,
2013-01-11 07:05:00,49.9,46.2,29.94,SSW,199,4.0,7.0,87,0.00,,,0.00,Wunderground v.1.15,2013-01-11 13:05:00,
2013-01-11 07:10:00,49.9,45.9,29.94,South,189,4.0,6.0,86,0.00,,,0.00,Wunderground v.1.15,2013-01-11 13:10:00,
2013-01-11 07:20:00,50.1,46.1,29.94,SSW,209,5.0,5.0,86,0.00,,,0.00,Wunderground v.1.15,2013-01-11 13:20:00,
2013-01-11 07:25:00,50.1,45.8,29.93,SSW,203,5.0,5.0,85,0.00,,,0.00,Wunderground v.1.15,2013-01-11 13:25:00,
2013-01-11 07:35:00,50.2,45.9,29.93,SW,223,5.0,11.0,85,0.00,,,0.00,Wunderground v.1.15,2013-01-11 13:35:00,
2013-01-11 07:40:00,50.4,45.7,29.93,SSW,199,6.0,6.0,84,0.00,,,0.00,Wunderground v.1.15,2013-01-11 13:40:00,
2013-01-11 07:50:00,50.4,45.7,29.94,SSW,213,4.0,6.0,84,0.00,,,0.00,Wunderground v.1.15,2013-01-11 13:50:00,
2013-01-11 07:55:00,50.4,46.1,29.94,SW,219,3.0,6.0,85,0.00,,,0.00,Wunderground v.1.15,2013-01-11 13:55:00,
2013-01-11 08:05:00,50.4,46.4,29.94,SSW,208,5.0,5.0,86,0.00,,,0.00,Wunderground v.1.15,2013-01-11 14:05:00,
2013-01-11 08:10:00,50.5,46.5,29.94,SSW,208,4.0,4.0,86,0.00,,,0.00,Wunderground v.1.15,2013-01-11 14:10:00,
2013-01-11 08:20:00,50.8,46.5,29.94,SW,220,5.0,10.0,85,0.00,,,0.00,Wunderground v.1.15,2013-01-11 14:20:00,
2013-01-11 08:25:00,51.4,46.7,29.94,SSW,208,5.0,10.0,84,0.00,,,0.00,Wunderground v.1.15,2013-01-11 14:25:00,
2013-01-11 08:35:00,52.0,47.3,29.94,SSW,200,4.0,4.0,84,0.00,,,0.00,Wunderground v.1.15,2013-01-11 14:35:00,
2013-01-11 08:40:00,52.2,47.2,29.94,South,169,3.0,5.0,83,0.00,,,0.00,Wunderground v.1.15,2013-01-11 14:40:00,
2013-01-11 08:50:00,52.9,47.6,29.94,SW,217,5.0,7.0,82,0.00,,,0.00,Wunderground v.1.15,2013-01-11 14:50:00,
2013-01-11 08:55:00,53.5,48.5,29.94,SW,222,5.0,11.0,83,0.00,,,0.00,Wunderground v.1.15,2013-01-11 14:55:00,
2013-01-11 09:05:00,55.0,49.3,29.94,SSW,212,5.0,6.0,81,0.00,,,0.00,Wunderground v.1.15,2013-01-11 15:05:00,
2013-01-11 09:10:00,55.7,49.6,29.94,SW,215,5.0,8.0,80,0.00,,,0.00,Wunderground v.1.15,2013-01-11 15:10:00,
2013-01-11 09:20:00,56.6,50.2,29.94,SSW,199,6.0,6.0,79,0.00,,,0.00,Wunderground v.1.15,2013-01-11 15:20:00,
2013-01-11 09:25:00,56.7,50.3,29.95,SW,217,6.0,6.0,79,0.00,,,0.00,Wunderground v.1.15,2013-01-11 15:25:00,
2013-01-11 09:35:00,57.2,50.4,29.95,SW,219,5.0,7.0,78,0.00,,,0.00,Wunderground v.1.15,2013-01-11 15:35:00,
2013-01-11 09:40:00,57.3,51.2,29.95,SW,217,5.0,10.0,80,0.00,,,0.00,Wunderground v.1.15,2013-01-11 15:40:00,
2013-01-11 09:50:00,57.6,51.8,29.94,SW,227,7.0,7.0,81,0.00,,,0.00,Wunderground v.1.15,2013-01-11 15:50:00,
2013-01-11 09:55:00,57.8,52.3,29.94,SW,223,7.0,7.0,82,0.00,,,0.00,Wunderground v.1.15,2013-01-11 15:55:00,
2013-01-11 10:05:00,58.4,53.3,29.94,SSW,200,7.0,7.0,83,0.00,,,0.00,Wunderground v.1.15,2013-01-11 16:05:00,
2013-01-11 10:10:00,58.4,53.6,29.94,SSW,200,6.0,6.0,84,0.00,,,0.00,Wunderground v.1.15,2013-01-11 16:10:00,
2013-01-11 10:20:00,58.4,54.2,29.93,South,176,8.0,11.0,86,0.00,,,0.00,Wunderground v.1.15,2013-01-11 16:20:00,
2013-01-11 10:25:00,58.3,54.4,29.93,SSW,196,7.0,11.0,87,0.00,,,0.00,Wunderground v.1.15,2013-01-11 16:25:00,
2013-01-11 10:35:00,58.3,54.4,29.94,SSW,202,5.0,8.0,87,0.00,,,0.00,Wunderground v.1.15,2013-01-11 16:35:00,
2013-01-11 10:40:00,58.1,54.2,29.94,SSW,213,4.0,5.0,87,0.00,,,0.00,Wunderground v.1.15,2013-01-11 16:40:00,
2013-01-11 10:50:00,58.7,54.8,29.93,SW,224,3.0,7.0,87,0.00,,,0.00,Wunderground v.1.15,2013-01-11 16:50:00,
2013-01-11 10:55:00,59.3,55.1,29.93,SW,217,3.0,7.0,86,0.00,,,0.00,Wunderground v.1.15,2013-01-11 16:55:00,
2013-01-11 11:05:00,60.2,55.3,29.92,South,191,5.0,6.0,84,0.00,,,0.00,Wunderground v.1.15,2013-01-11 17:05:00,
2013-01-11 11:10:00,61.2,56.3,29.92,SSW,209,6.0,18.0,84,0.00,,,0.00,Wunderground v.1.15,2013-01-11 17:10:00,
2013-01-11 11:20:00,62.7,55.4,29.91,SSW,210,7.0,7.0,77,0.00,,,0.00,Wunderground v.1.15,2013-01-11 17:20:00,
2013-01-11 11:25:00,63.2,55.5,29.91,SW,217,5.0,10.0,76,0.00,,,0.00,Wunderground v.1.15,2013-01-11 17:25:00,
2013-01-11 11:35:00,63.9,55.4,29.89,SSW,205,5.0,8.0,74,0.00,,,0.00,Wunderground v.1.15,2013-01-11 17:35:00,
2013-01-11 11:40:00,63.9,55.4,29.89,SW,223,6.0,6.0,74,0.00,,,0.00,Wunderground v.1.15,2013-01-11 17:40:00,
2013-01-11 11:50:00,64.2,55.4,29.89,SSW,202,6.0,12.0,73,0.00,,,0.00,Wunderground v.1.15,2013-01-11 17:50:00,
2013-01-11 11:55:00,65.2,55.6,29.88,SSW,200,7.0,12.0,71,0.00,,,0.00,Wunderground v.1.15,2013-01-11 17:55:00,
2013-01-11 12:05:00,66.0,55.1,29.87,SSW,195,6.0,7.0,68,0.00,,,0.00,Wunderground v.1.15,2013-01-11 18:05:00,
2013-01-11 12:10:00,65.8,55.3,29.87,South,191,8.0,8.0,69,0.00,,,0.00,Wunderground v.1.15,2013-01-11 18:10:00,
2013-01-11 12:20:00,67.1,56.2,29.86,WSW,251,6.0,8.0,68,0.00,,,0.00,Wunderground v.1.15,2013-01-11 18:20:00,
2013-01-11 12:25:00,67.9,54.8,29.86,South,169,8.0,12.0,63,0.00,,,0.00,Wunderground v.1.15,2013-01-11 18:25:00,
2013-01-11 12:35:00,68.8,55.2,29.85,SW,227,8.0,12.0,62,0.00,,,0.00,Wunderground v.1.15,2013-01-11 18:35:00,
2013-01-11 12:40:00,69.1,55.5,29.85,SSW,206,8.0,8.0,62,0.00,,,0.00,Wunderground v.1.15,2013-01-11 18:40:00,
2013-01-11 12:50:00,70.3,55.3,29.85,South,188,7.0,16.0,59,0.00,,,0.00,Wunderground v.1.15,2013-01-11 18:50:00,
2013-01-11 12:55:00,70.1,55.1,29.85,South,175,6.0,16.0,59,0.00,,,0.00,Wunderground v.1.15,2013-01-11 18:55:00,
2013-01-11 13:05:00,70.6,56.0,29.84,SW,219,6.0,7.0,60,0.00,,,0.00,Wunderground v.1.15,2013-01-11 19:05:00,
2013-01-11 13:10:00,70.9,56.3,29.83,SSW,202,7.0,7.0,60,0.00,,,0.00,Wunderground v.1.15,2013-01-11 19:10:00,
2013-01-11 13:20:00,71.3,56.2,29.81,SSW,210,6.0,6.0,59,0.00,,,0.00,Wunderground v.1.15,2013-01-11 19:20:00,
2013-01-11 13:25:00,71.3,55.8,29.80,South,179,7.0,7.0,58,0.00,,,0.00,Wunderground v.1.15,2013-01-11 19:25:00,
2013-01-11 13:35:00,71.3,56.2,29.80,SSW,198,5.0,13.0,59,0.00,,,0.00,Wunderground v.1.15,2013-01-11 19:35:00,
2013-01-11 13:40:00,71.1,56.5,29.80,SW,226,7.0,8.0,60,0.00,,,0.00,Wunderground v.1.15,2013-01-11 19:40:00,
2013-01-11 13:50:00,71.1,57.4,29.81,SSW,203,7.0,7.0,62,0.00,,,0.00,Wunderground v.1.15,2013-01-11 19:50:00,
2013-01-11 13:55:00,71.1,57.0,29.81,SSE,167,7.0,10.0,61,0.00,,,0.00,Wunderground v.1.15,2013-01-11 19:55:00,
2013-01-11 14:05:00,70.6,57.4,29.81,SSW,203,7.0,7.0,63,0.00,,,0.00,Wunderground v.1.15,2013-01-11 20:05:00,
2013-01-11 14:10:00,69.8,57.5,29.81,SSW,195,7.0,7.0,65,0.00,,,0.00,Wunderground v.1.15,2013-01-11 20:10:00,
2013-01-11 14:20:00,69.9,57.6,29.80,South,182,8.0,8.0,65,0.00,,,0.00,Wunderground v.1.15,2013-01-11 20:20:00,
2013-01-11 14:25:00,70.3,57.5,29.80,ESE,110,7.0,8.0,64,0.00,,,0.00,Wunderground v.1.15,2013-01-11 20:25:00,
2013-01-11 14:35:00,70.6,57.8,29.78,South,172,7.0,7.0,64,0.00,,,0.00,Wunderground v.1.15,2013-01-11 20:35:00,
2013-01-11 14:40:00,70.1,57.4,29.78,South,182,6.0,6.0,64,0.00,,,0.00,Wunderground v.1.15,2013-01-11 20:40:00,
2013-01-11 14:50:00,69.4,58.0,29.79,South,188,6.0,6.0,67,0.00,,,0.00,Wunderground v.1.15,2013-01-11 20:50:00,
2013-01-11 14:55:00,69.4,58.0,29.78,South,175,4.0,6.0,67,0.00,,,0.00,Wunderground v.1.15,2013-01-11 20:55:00,
2013-01-11 15:05:00,69.8,58.8,29.77,South,169,5.0,5.0,68,0.00,,,0.00,Wunderground v.1.15,2013-01-11 21:05:00,
2013-01-11 15:10:00,69.9,58.4,29.78,South,189,6.0,6.0,67,0.00,,,0.00,Wunderground v.1.15,2013-01-11 21:10:00,
2013-01-11 15:20:00,69.6,58.6,29.79,SSE,158,6.0,6.0,68,0.00,,,0.00,Wunderground v.1.15,2013-01-11 21:20:00,
2013-01-11 15:25:00,69.3,58.7,29.78,SE,145,7.0,7.0,69,0.00,,,0.00,Wunderground v.1.15,2013-01-11 21:25:00,
2013-01-11 15:35:00,69.3,58.7,29.78,SE,136,5.0,6.0,69,0.00,,,0.00,Wunderground v.1.15,2013-01-11 21:35:00,
2013-01-11 15:40:00,69.1,58.1,29.78,SSE,157,6.0,6.0,68,0.00,,,0.00,Wunderground v.1.15,2013-01-11 21:40:00,
2013-01-11 15:50:00,68.4,58.2,29.78,South,178,6.0,6.0,70,0.00,,,0.00,Wunderground v.1.15,2013-01-11 21:50:00,
2013-01-11 15:55:00,67.9,58.1,29.79,SSW,198,6.0,6.0,71,0.00,,,0.00,Wunderground v.1.15,2013-01-11 21:55:00,
2013-01-11 16:05:00,67.4,58.1,29.78,SSE,167,6.0,10.0,72,0.00,,,0.00,Wunderground v.1.15,2013-01-11 22:05:00,
2013-01-11 16:10:00,67.4,58.1,29.78,SE,145,7.0,10.0,72,0.00,,,0.00,Wunderground v.1.15,2013-01-11 22:10:00,
2013-01-11 16:20:00,67.3,58.3,29.78,SSE,150,6.0,6.0,73,0.00,,,0.00,Wunderground v.1.15,2013-01-11 22:20:00,
2013-01-11 16:25:00,67.3,58.7,29.78,SE,145,4.0,6.0,74,0.00,,,0.00,Wunderground v.1.15,2013-01-11 22:25:00,
2013-01-11 16:35:00,66.9,58.3,29.78,SSE,155,4.0,11.0,74,0.00,,,0.00,Wunderground v.1.15,2013-01-11 22:35:00,
2013-01-11 16:40:00,66.8,59.0,29.78,SE,141,3.0,3.0,76,0.00,,,0.00,Wunderground v.1.15,2013-01-11 22:40:00,
2013-01-11 16:50:00,66.4,59.0,29.78,SSE,165,5.0,5.0,77,0.00,,,0.00,Wunderground v.1.15,2013-01-11 22:50:00,
2013-01-11 16:55:00,66.3,58.9,29.78,South,174,4.0,5.0,77,0.00,,,0.00,Wunderground v.1.15,2013-01-11 22:55:00,
2013-01-11 17:05:00,66.0,58.9,29.78,South,176,4.0,4.0,78,0.00,,,0.00,Wunderground v.1.15,2013-01-11 23:05:00,
2013-01-11 17:10:00,65.8,59.1,29.78,SSE,158,4.0,4.0,79,0.00,,,0.00,Wunderground v.1.15,2013-01-11 23:10:00,
2013-01-11 17:20:00,65.6,59.3,29.78,South,174,2.0,6.0,80,0.00,,,0.00,Wunderground v.1.15,2013-01-11 23:20:00,
2013-01-11 17:25:00,65.3,59.3,29.79,South,172,2.0,6.0,81,0.00,,,0.00,Wunderground v.1.15,2013-01-11 23:25:00,
2013-01-11 17:35:00,65.0,59.0,29.78,South,169,3.0,10.0,81,0.00,,,0.00,Wunderground v.1.15,2013-01-11 23:35:00,
2013-01-11 17:40:00,64.8,59.5,29.78,South,169,2.0,3.0,83,0.00,,,0.00,Wunderground v.1.15,2013-01-11 23:40:00,
2013-01-11 17:50:00,64.3,59.0,29.78,SSE,168,2.0,2.0,83,0.00,,,0.00,Wunderground v.1.15,2013-01-11 23:50:00,
2013-01-11 17:55:00,64.0,59.1,29.78,SSE,168,1.0,2.0,84,0.00,,,0.00,Wunderground v.1.15,2013-01-11 23:55:00,
2013-01-11 18:05:00,63.7,59.1,29.78,SSE,167,1.0,5.0,85,0.00,,,0.00,Wunderground v.1.15,2013-01-12 00:05:00,
2013-01-11 18:10:00,63.5,58.9,29.78,SSE,165,1.0,3.0,85,0.00,,,0.00,Wunderground v.1.15,2013-01-12 00:10:00,
2013-01-11 18:20:00,63.4,59.1,29.79,SSE,164,1.0,1.0,86,0.00,,,0.00,Wunderground v.1.15,2013-01-12 00:20:00,
2013-01-11 18:25:00,63.2,58.9,29.80,SSE,164,1.0,1.0,86,0.00,,,0.00,Wunderground v.1.15,2013-01-12 00:25:00,
2013-01-11 18:35:00,63.1,58.8,29.80,SSE,164,0.0,0.0,86,0.00,,,0.00,Wunderground v.1.15,2013-01-12 00:35:00,
2013-01-11 18:40:00,62.9,59.0,29.80,SSE,164,0.0,0.0,87,0.00,,,0.00,Wunderground v.1.15,2013-01-12 00:40:00,
2013-01-11 18:50:00,62.7,58.8,29.79,SSE,164,0.0,0.0,87,0.00,,,0.00,Wunderground v.1.15,2013-01-12 00:50:00,
2013-01-11 18:55:00,62.6,58.7,29.79,SSE,164,0.0,0.0,87,0.00,,,0.00,Wunderground v.1.15,2013-01-12 00:55:00,
2013-01-11 19:05:00,62.1,58.5,29.80,SSE,164,0.0,0.0,88,0.00,,,0.00,Wunderground v.1.15,2013-01-12 01:05:00,
2013-01-11 19:10:00,61.8,58.2,29.80,SSE,164,0.0,0.0,88,0.00,,,0.00,Wunderground v.1.15,2013-01-12 01:10:00,
2013-01-11 19:20:00,61.6,58.3,29.80,SSE,164,0.0,0.0,89,0.00,,,0.00,Wunderground v.1.15,2013-01-12 01:20:00,
2013-01-11 19:25:00,61.6,58.6,29.80,SSE,164,0.0,0.0,90,0.00,,,0.00,Wunderground v.1.15,2013-01-12 01:25:00,
2013-01-11 19:35:00,61.8,59.1,29.80,SSE,164,0.0,0.0,91,0.00,,,0.00,Wunderground v.1.15,2013-01-12 01:35:00,
2013-01-11 20:00:00,62.3,59.6,29.80,SSE,164,0.0,0.0,91,0.00,,,0.00,Wunderground v.1.15,2013-01-12 02:00:00,
2013-01-11 20:05:00,62.3,59.6,29.80,SSE,164,0.0,5.0,91,0.00,,,0.00,Wunderground v.1.15,2013-01-12 02:05:00,
2013-01-11 20:10:00,62.3,59.6,29.81,SSE,164,1.0,1.0,91,0.00,,,0.00,Wunderground v.1.15,2013-01-12 02:10:00,
2013-01-11 20:20:00,62.3,59.3,29.80,SSE,164,1.0,2.0,90,0.00,,,0.00,Wunderground v.1.15,2013-01-12 02:20:00,
2013-01-11 20:25:00,62.4,59.4,29.80,SSE,164,2.0,2.0,90,0.00,,,0.00,Wunderground v.1.15,2013-01-12 02:25:00,
2013-01-11 20:35:00,62.4,59.4,29.80,SSE,164,1.0,2.0,90,0.00,,,0.00,Wunderground v.1.15,2013-01-12 02:35:00,
2013-01-11 20:40:00,62.4,59.4,29.80,SSE,164,2.0,2.0,90,0.00,,,0.00,Wunderground v.1.15,2013-01-12 02:40:00,
2013-01-11 20:50:00,62.6,59.6,29.78,SSE,151,2.0,2.0,90,0.00,,,0.00,Wunderground v.1.15,2013-01-12 02:50:00,
2013-01-11 20:55:00,62.6,59.9,29.78,SSE,148,2.0,6.0,91,0.00,,,0.00,Wunderground v.1.15,2013-01-12 02:55:00,
2013-01-11 21:05:00,62.7,60.0,29.78,SSE,148,2.0,2.0,91,0.00,,,0.00,Wunderground v.1.15,2013-01-12 03:05:00,
2013-01-11 21:10:00,62.7,60.0,29.78,SSE,148,2.0,3.0,91,0.00,,,0.00,Wunderground v.1.15,2013-01-12 03:10:00,
2013-01-11 21:20:00,63.1,60.7,29.78,SSE,152,3.0,3.0,92,0.00,,,0.00,Wunderground v.1.15,2013-01-12 03:20:00,
2013-01-11 21:25:00,63.2,60.8,29.78,SSE,152,3.0,3.0,92,0.00,,,0.00,Wunderground v.1.15,2013-01-12 03:25:00,
2013-01-11 21:35:00,63.5,61.7,29.78,SSE,150,3.0,3.0,94,0.00,,,0.00,Wunderground v.1.15,2013-01-12 03:35:00,
2013-01-11 21:40:00,63.7,61.9,29.78,SSE,160,2.0,2.0,94,0.00,,,0.00,Wunderground v.1.15,2013-01-12 03:40:00,
2013-01-11 21:50:00,63.9,62.4,29.77,SSE,158,3.0,8.0,95,0.00,,,0.00,Wunderground v.1.15,2013-01-12 03:50:00,
2013-01-11 21:55:00,63.9,62.4,29.78,SSE,158,3.0,8.0,95,0.00,,,0.00,Wunderground v.1.15,2013-01-12 03:55:00,
2013-01-11 22:05:00,64.0,62.8,29.78,SSE,161,3.0,5.0,96,0.00,,,0.00,Wunderground v.1.15,2013-01-12 04:05:00,
2013-01-11 22:10:00,64.0,62.8,29.79,SSE,161,3.0,3.0,96,0.00,,,0.00,Wunderground v.1.15,2013-01-12 04:10:00,
2013-01-11 22:20:00,64.3,63.1,29.79,SSE,162,2.0,2.0,96,0.00,,,0.00,Wunderground v.1.15,2013-01-12 04:20:00,
2013-01-11 22:25:00,64.3,63.1,29.79,SSE,164,2.0,2.0,96,0.00,,,0.00,Wunderground v.1.15,2013-01-12 04:25:00,
2013-01-11 22:35:00,64.7,63.5,29.79,SSE,161,3.0,5.0,96,0.00,,,0.00,Wunderground v.1.15,2013-01-12 04:35:00,
2013-01-11 22:40:00,64.7,63.8,29.79,SSE,161,2.0,2.0,97,0.00,,,0.00,Wunderground v.1.15,2013-01-12 04:40:00,
2013-01-11 22:50:00,65.0,65.0,29.79,SSE,162,2.0,2.0,100,0.00,,,0.00,Wunderground v.1.15,2013-01-12 04:50:00,
2013-01-11 22:55:00,65.0,65.0,29.79,SSE,162,2.0,2.0,100,0.00,,,0.00,Wunderground v.1.15,2013-01-12 04:55:00,
2013-01-11 23:05:00,65.0,65.0,29.79,SSE,164,2.0,5.0,100,0.00,,,0.00,Wunderground v.1.15,2013-01-12 05:05:00,
2013-01-11 23:10:00,65.2,65.2,29.78,SSE,164,3.0,3.0,100,0.00,,,0.00,Wunderground v.1.15,2013-01-12 05:10:00,
2013-01-11 23:15:00,65.2,65.2,29.78,SSE,164,3.0,3.0,100,0.00,,,0.00,Wunderground v.1.15,2013-01-12 05:15:00,
2013-01-11 23:20:00,65.2,65.2,29.78,SSE,162,2.0,2.0,100,0.00,,,0.00,Wunderground v.1.15,2013-01-12 05:20:00,
2013-01-11 23:25:00,65.2,65.2,29.78,SSE,164,2.0,2.0,100,0.00,,,0.00,Wunderground v.1.15,2013-01-12 05:25:00,
2013-01-11 23:30:00,65.2,65.2,29.78,SSE,164,1.0,1.0,100,0.00,,,0.00,Wunderground v.1.15,2013-01-12 05:30:00,
2013-01-11 23:35:00,65.2,65.2,29.76,SSE,160,1.0,3.0,100,0.00,,,0.00,Wunderground v.1.15,2013-01-12 05:35:00,
2013-01-11 23:40:00,65.3,65.3,29.77,SSE,155,3.0,3.0,100,0.00,,,0.00,Wunderground v.1.15,2013-01-12 05:40:00,
2013-01-11 23:50:00,65.3,65.3,29.78,SSE,154,2.0,3.0,100,0.00,,,0.00,Wunderground v.1.15,2013-01-12 05:50:00,
2013-01-11 23:55:00,65.3,65.3,29.78,SSE,154,2.0,6.0,100,0.00,,,0.00,Wunderground v.1.15,2013-01-12 05:55:00,